Time;durP1;ratioP1;P1;durP2;ratioP2;P2;SDS_P1;SDS_P2;PMS_P1;PMS_P2;Temp;Humidity;BMP_temperature;BMP_pressure;BME280_temperature;BME280_humidity;BME280_pressure;Samples;Min_cycle;Max_cycle;Signal;HPM_P1;HPM_P2
2024/02/27 00:02:06;;;;;;;40.90;22.95;;;4.70;99.90;;;;;;5110571;28;20504;-62
2024/02/27 00:04:32;;;;;;;37.90;22.08;;;4.70;99.90;;;;;;5110444;28;20507;-63
2024/02/27 00:06:58;;;;;;;40.33;24.42;;;4.60;99.90;;;;;;5109506;27;20020;-63
2024/02/27 00:09:23;;;;;;;41.10;23.05;;;4.60;99.90;;;;;;5110392;28;20430;-63
2024/02/27 00:11:49;;;;;;;40.90;23.02;;;4.50;99.90;;;;;;5110129;28;20464;-63
2024/02/27 00:14:15;;;;;;;35.38;20.85;;;4.40;99.90;;;;;;5110150;28;20404;-63
2024/02/27 00:16:40;;;;;;;45.40;24.38;;;4.40;99.90;;;;;;5109727;28;20499;-63
2024/02/27 00:19:07;;;;;;;43.63;23.35;;;4.30;99.90;;;;;;5110151;28;20030;-63
2024/02/27 00:21:32;;;;;;;36.03;21.00;;;4.30;99.90;;;;;;5109973;28;20023;-63
2024/02/27 00:23:58;;;;;;;40.78;23.48;;;4.30;99.90;;;;;;5110615;28;20426;-63
2024/02/27 00:26:23;;;;;;;38.80;21.30;;;4.30;99.90;;;;;;5110629;27;20121;-63
2024/02/27 00:28:49;;;;;;;42.38;23.90;;;4.20;99.90;;;;;;5110134;28;20046;-62
2024/02/27 00:31:15;;;;;;;38.92;21.98;;;4.20;99.90;;;;;;5110176;28;20031;-63
2024/02/27 00:33:40;;;;;;;37.70;21.27;;;4.10;99.90;;;;;;5109459;28;20020;-62
2024/02/27 00:36:07;;;;;;;38.63;21.17;;;4.10;99.90;;;;;;5109981;28;20023;-61
2024/02/27 00:38:34;;;;;;;44.10;23.30;;;4.00;99.90;;;;;;5109416;28;20047;-62
2024/02/27 00:41:02;;;;;;;39.30;22.58;;;4.00;99.90;;;;;;5109286;28;20019;-63
2024/02/27 00:43:27;;;;;;;36.42;21.30;;;3.90;99.90;;;;;;5109730;28;20023;-63
2024/02/27 00:45:53;;;;;;;40.63;23.02;;;3.90;99.90;;;;;;5109672;28;20035;-64
2024/02/27 00:48:18;;;;;;;42.58;24.20;;;3.90;99.90;;;;;;5109400;28;20030;-64
2024/02/27 00:50:44;;;;;;;43.88;22.83;;;3.90;99.90;;;;;;5109608;28;20111;-64
2024/02/27 00:53:10;;;;;;;40.67;23.98;;;3.80;99.90;;;;;;5109747;28;20018;-63
2024/02/27 00:55:35;;;;;;;34.72;20.48;;;3.80;99.90;;;;;;5107675;28;20031;-64
2024/02/27 00:58:01;;;;;;;41.92;20.98;;;3.80;99.90;;;;;;5108242;28;20099;-63
2024/02/27 01:00:26;;;;;;;37.97;21.33;;;3.70;99.90;;;;;;5109187;28;20058;-63
2024/02/27 01:02:52;;;;;;;38.88;22.35;;;3.70;99.90;;;;;;5108864;28;20137;-63
2024/02/27 01:05:17;;;;;;;37.83;20.75;;;3.70;99.90;;;;;;5108718;28;20049;-63
2024/02/27 01:07:44;;;;;;;44.35;22.00;;;3.70;99.90;;;;;;5108147;28;20393;-62
2024/02/27 01:10:10;;;;;;;40.90;21.23;;;3.70;99.90;;;;;;5109562;28;20373;-62
2024/02/27 01:12:36;;;;;;;34.90;20.67;;;3.70;99.90;;;;;;5109105;28;20315;-63
2024/02/27 01:15:02;;;;;;;36.00;20.33;;;3.70;99.90;;;;;;5107063;28;20054;-62
2024/02/27 01:17:28;;;;;;;39.83;21.75;;;3.60;99.90;;;;;;5108070;27;20357;-62
2024/02/27 01:19:53;;;;;;;37.45;20.88;;;3.60;99.90;;;;;;5109688;28;20125;-63
2024/02/27 01:22:27;;;;;;;41.47;21.15;;;3.60;99.90;;;;;;5108983;28;20016;-62
2024/02/27 01:24:57;;;;;;;40.63;23.38;;;3.60;99.90;;;;;;5108310;28;20026;-63
2024/02/27 01:27:23;;;;;;;33.80;19.23;;;3.50;99.90;;;;;;5105657;28;20472;-62
2024/02/27 01:29:52;;;;;;;42.17;23.02;;;3.50;99.90;;;;;;5108961;28;20256;-62
2024/02/27 01:32:17;;;;;;;41.20;21.48;;;3.40;99.90;;;;;;5108584;28;20102;-62
2024/02/27 01:34:43;;;;;;;42.67;22.63;;;3.50;99.90;;;;;;5108905;27;20098;-63
2024/02/27 01:37:09;;;;;;;36.25;21.02;;;3.40;99.90;;;;;;5107075;28;20106;-62
2024/02/27 01:39:35;;;;;;;37.50;21.90;;;3.50;99.90;;;;;;5108278;28;20027;-62
2024/02/27 01:42:00;;;;;;;34.20;20.73;;;3.50;99.90;;;;;;5107256;28;20229;-62
2024/02/27 01:44:26;;;;;;;36.58;21.35;;;3.50;99.90;;;;;;5108155;28;20016;-62
2024/02/27 01:46:53;;;;;;;37.70;20.95;;;3.40;99.90;;;;;;5108143;28;20024;-63
2024/02/27 01:49:19;;;;;;;34.75;21.25;;;3.50;99.90;;;;;;5108550;28;20507;-63
2024/02/27 01:51:47;;;;;;;40.55;21.35;;;3.40;99.90;;;;;;5108984;28;20043;-62
2024/02/27 01:54:16;;;;;;;37.22;19.55;;;3.40;99.90;;;;;;5108729;28;20019;-63
2024/02/27 01:56:44;;;;;;;37.42;21.23;;;3.40;99.90;;;;;;5108136;28;20027;-63
2024/02/27 01:59:11;;;;;;;39.92;21.98;;;3.40;99.90;;;;;;5108878;28;20008;-63
2024/02/27 02:01:38;;;;;;;34.63;20.13;;;3.40;99.90;;;;;;5108218;28;20110;-63
2024/02/27 02:04:07;;;;;;;36.15;20.08;;;3.40;99.90;;;;;;5108389;28;20019;-63
2024/02/27 02:06:33;;;;;;;43.47;22.73;;;3.30;99.90;;;;;;5108369;28;20019;-62
2024/02/27 02:08:59;;;;;;;42.22;22.92;;;3.30;99.90;;;;;;5108339;28;20051;-63
2024/02/27 02:11:25;;;;;;;41.75;23.48;;;3.30;99.90;;;;;;5106302;28;20055;-63
2024/02/27 02:13:50;;;;;;;42.78;24.58;;;3.30;99.90;;;;;;5107996;28;20076;-62
2024/02/27 02:16:16;;;;;;;38.40;21.25;;;3.40;99.90;;;;;;5108179;28;20482;-62
2024/02/27 02:18:41;;;;;;;47.22;25.25;;;3.30;99.90;;;;;;5108362;28;20523;-63
2024/02/27 02:21:07;;;;;;;45.13;23.00;;;3.40;99.90;;;;;;5108041;28;20024;-62
2024/02/27 02:23:32;;;;;;;42.03;23.77;;;3.40;99.90;;;;;;5107658;28;20394;-62
2024/02/27 02:25:59;;;;;;;38.95;22.95;;;3.30;99.90;;;;;;5106528;28;20051;-63
2024/02/27 02:28:25;;;;;;;40.63;22.67;;;3.30;99.90;;;;;;5107615;28;20041;-63
2024/02/27 02:30:51;;;;;;;37.15;21.88;;;3.30;99.90;;;;;;5111358;28;20030;-63
2024/02/27 02:33:17;;;;;;;38.40;22.23;;;3.30;99.90;;;;;;5112038;28;20019;-63
2024/02/27 02:35:44;;;;;;;41.67;22.17;;;3.30;99.90;;;;;;5110278;28;20069;-63
2024/02/27 02:38:09;;;;;;;34.97;20.48;;;3.30;99.90;;;;;;5111148;28;20515;-62
2024/02/27 02:40:35;;;;;;;43.03;22.02;;;3.20;99.90;;;;;;5111807;28;20279;-62
2024/02/27 02:43:00;;;;;;;40.95;21.88;;;3.20;99.90;;;;;;5111705;28;20027;-63
2024/02/27 02:45:27;;;;;;;41.85;21.35;;;3.20;99.90;;;;;;5111136;28;20024;-62
2024/02/27 02:47:53;;;;;;;43.35;21.35;;;3.30;99.90;;;;;;5111685;28;20478;-62
2024/02/27 02:50:18;;;;;;;37.25;22.33;;;3.20;99.90;;;;;;5111813;28;20121;-63
2024/02/27 02:52:44;;;;;;;42.92;22.08;;;3.20;99.90;;;;;;5111689;28;20042;-63
2024/02/27 02:55:10;;;;;;;39.42;21.65;;;3.30;99.90;;;;;;5111228;28;20014;-63
2024/02/27 02:57:35;;;;;;;41.53;21.77;;;3.20;99.90;;;;;;5111558;28;20046;-63
2024/02/27 03:00:04;;;;;;;51.05;23.15;;;3.20;99.90;;;;;;5111543;28;20125;-63
2024/02/27 03:02:30;;;;;;;38.55;22.20;;;3.20;99.90;;;;;;5111032;27;20030;-63
2024/02/27 03:04:56;;;;;;;48.38;24.77;;;3.20;99.90;;;;;;5111111;28;20019;-63
2024/02/27 03:07:22;;;;;;;43.65;24.75;;;3.20;99.90;;;;;;5111057;28;20404;-62
2024/02/27 03:09:48;;;;;;;50.60;25.45;;;3.20;99.90;;;;;;5111022;28;20145;-63
2024/02/27 03:12:13;;;;;;;48.10;23.70;;;3.20;99.90;;;;;;5111454;28;20037;-63
2024/02/27 03:14:45;;;;;;;49.40;25.35;;;3.30;99.90;;;;;;5110967;28;20662;-63
2024/02/27 03:17:13;;;;;;;44.45;24.13;;;3.20;99.90;;;;;;5110499;28;20503;-62
2024/02/27 03:19:38;;;;;;;44.55;22.80;;;3.20;99.90;;;;;;5111115;28;20034;-63
2024/02/27 03:22:04;;;;;;;45.65;24.75;;;3.20;99.90;;;;;;5110788;28;20008;-62
2024/02/27 03:24:31;;;;;;;46.65;24.35;;;3.20;99.90;;;;;;5110689;28;20044;-63
2024/02/27 03:26:57;;;;;;;38.65;20.50;;;3.20;99.90;;;;;;5110916;28;20016;-63
2024/02/27 03:29:23;;;;;;;40.15;21.85;;;3.10;99.90;;;;;;5110964;28;20015;-63
2024/02/27 03:31:48;;;;;;;37.92;19.83;;;3.00;99.90;;;;;;5110826;28;20384;-62
2024/02/27 03:34:14;;;;;;;38.17;20.20;;;2.90;99.90;;;;;;5111400;28;20008;-62
2024/02/27 03:36:40;;;;;;;42.00;20.88;;;2.90;99.90;;;;;;5110480;28;20055;-62
2024/02/27 03:39:05;;;;;;;40.70;20.15;;;2.80;99.90;;;;;;5111243;28;20465;-61
2024/02/27 03:41:31;;;;;;;44.53;22.90;;;2.80;99.90;;;;;;5110716;28;20023;-61
2024/02/27 03:43:57;;;;;;;44.22;23.08;;;2.70;99.90;;;;;;5109484;28;20027;-62
2024/02/27 03:46:22;;;;;;;44.67;23.00;;;2.70;99.90;;;;;;5110135;28;20426;-61
2024/02/27 03:48:48;;;;;;;43.72;21.60;;;2.70;99.90;;;;;;5110396;28;20080;-61
2024/02/27 03:51:13;;;;;;;42.42;20.98;;;2.70;99.90;;;;;;5108969;28;20025;-61
2024/02/27 03:53:39;;;;;;;38.40;20.25;;;2.70;99.90;;;;;;5110488;28;20026;-61
2024/02/27 03:56:05;;;;;;;44.33;21.63;;;2.70;99.90;;;;;;5110179;28;20020;-61
2024/02/27 03:58:33;;;;;;;47.63;23.20;;;2.70;99.90;;;;;;5109983;28;20416;-61
2024/02/27 04:00:59;;;;;;;40.33;20.67;;;2.70;99.90;;;;;;5108681;28;20061;-61
2024/02/27 04:03:24;;;;;;;40.08;20.95;;;2.70;99.90;;;;;;5109542;28;20020;-61
2024/02/27 04:05:50;;;;;;;46.60;23.38;;;2.60;99.90;;;;;;5109440;28;20068;-62
2024/02/27 04:08:16;;;;;;;46.67;22.00;;;2.70;99.90;;;;;;5108830;28;20075;-61
2024/02/27 04:10:41;;;;;;;46.50;24.27;;;2.70;99.90;;;;;;5110330;28;20031;-61
2024/02/27 04:13:07;;;;;;;54.85;24.45;;;2.70;99.90;;;;;;5110570;28;20020;-61
2024/02/27 04:15:32;;;;;;;47.25;24.05;;;2.70;99.90;;;;;;5108435;28;20023;-62
2024/02/27 04:17:58;;;;;;;48.40;23.23;;;2.70;99.90;;;;;;5110421;28;20240;-62
2024/02/27 04:20:23;;;;;;;47.17;23.90;;;2.70;99.90;;;;;;5110118;28;20023;-62
2024/02/27 04:22:49;;;;;;;51.00;24.25;;;2.70;99.90;;;;;;5108476;28;20138;-61
2024/02/27 04:25:15;;;;;;;46.38;23.00;;;2.70;99.90;;;;;;5109828;28;20080;-61
2024/02/27 04:27:41;;;;;;;47.90;24.60;;;2.70;99.90;;;;;;5109666;28;20034;-61
2024/02/27 04:30:07;;;;;;;49.45;23.98;;;2.70;99.90;;;;;;5108445;28;20106;-61
2024/02/27 04:32:34;;;;;;;47.72;24.08;;;2.70;99.90;;;;;;5109684;28;20031;-61
2024/02/27 04:35:00;;;;;;;51.53;26.40;;;2.70;99.90;;;;;;5108550;28;20337;-61
2024/02/27 04:37:26;;;;;;;59.45;28.13;;;2.70;99.90;;;;;;5109472;28;20398;-62
2024/02/27 04:39:51;;;;;;;53.53;27.23;;;2.70;99.90;;;;;;5109882;28;20024;-61
2024/02/27 04:42:17;;;;;;;65.65;30.10;;;2.70;99.90;;;;;;5109281;28;20059;-61
2024/02/27 04:44:43;;;;;;;60.33;28.55;;;2.70;99.90;;;;;;5108254;28;20099;-61
2024/02/27 04:47:08;;;;;;;61.17;27.95;;;2.80;99.90;;;;;;5109175;28;20526;-61
2024/02/27 04:49:34;;;;;;;62.50;29.10;;;2.80;99.90;;;;;;5108353;28;20034;-62
2024/02/27 04:51:59;;;;;;;60.88;30.13;;;2.80;99.90;;;;;;5109420;28;20020;-61
2024/02/27 04:54:25;;;;;;;68.53;31.75;;;2.80;99.90;;;;;;5109815;28;20023;-62
2024/02/27 04:56:50;;;;;;;59.22;30.50;;;2.80;99.90;;;;;;5108973;28;20486;-62
2024/02/27 04:59:16;;;;;;;62.63;29.40;;;2.80;99.90;;;;;;5109180;28;20163;-62
2024/02/27 05:01:46;;;;;;;57.60;27.80;;;2.80;99.90;;;;;;5109134;28;20028;-62
2024/02/27 05:04:12;;;;;;;;;;;2.80;99.90;;;;;;5109669;28;20419;-62
2024/02/27 05:06:37;;;;;;;62.13;27.45;;;2.80;99.90;;;;;;5108462;28;19962;-62
2024/02/27 05:09:03;;;;;;;57.17;27.85;;;2.80;99.90;;;;;;5109471;28;20501;-62
2024/02/27 05:11:29;;;;;;;58.00;28.20;;;2.90;99.90;;;;;;5109585;28;20077;-62
2024/02/27 05:13:54;;;;;;;61.45;28.00;;;2.90;99.90;;;;;;5109099;28;20055;-60
2024/02/27 05:16:20;;;;;;;66.05;32.13;;;2.90;99.90;;;;;;5108746;28;20039;-61
2024/02/27 05:18:45;;;;;;;58.08;28.58;;;2.90;99.90;;;;;;5109354;28;20372;-61
2024/02/27 05:21:11;;;;;;;64.90;30.50;;;2.90;99.90;;;;;;5109033;28;20028;-62
2024/02/27 05:23:37;;;;;;;70.78;32.47;;;2.90;99.90;;;;;;5109133;28;20107;-62
2024/02/27 05:26:03;;;;;;;65.22;29.90;;;2.90;99.90;;;;;;5107254;28;20125;-62
2024/02/27 05:28:29;;;;;;;65.68;29.95;;;2.90;99.90;;;;;;5109056;28;20020;-62
2024/02/27 05:30:55;;;;;;;69.53;29.42;;;2.90;99.90;;;;;;5107081;28;20024;-62
2024/02/27 05:33:21;;;;;;;68.47;29.35;;;2.90;99.90;;;;;;5109014;28;20012;-62
2024/02/27 05:35:46;;;;;;;60.40;29.63;;;2.90;99.90;;;;;;5107954;28;20488;-62
2024/02/27 05:38:12;;;;;;;65.03;29.15;;;2.90;99.90;;;;;;5108650;28;20087;-62
2024/02/27 05:40:37;;;;;;;63.25;28.65;;;3.00;99.90;;;;;;5108520;28;20484;-62
2024/02/27 05:43:03;;;;;;;64.15;30.10;;;3.00;99.90;;;;;;5108457;27;20020;-62
2024/02/27 05:45:29;;;;;;;61.25;29.10;;;3.00;99.90;;;;;;5107791;28;20038;-62
2024/02/27 05:47:54;;;;;;;64.65;27.75;;;3.00;99.90;;;;;;5108424;28;20032;-62
2024/02/27 05:50:20;;;;;;;74.57;31.50;;;3.10;99.90;;;;;;5108834;28;20531;-62
2024/02/27 05:52:46;;;;;;;65.60;29.75;;;3.10;99.90;;;;;;5108477;28;20024;-61
2024/02/27 05:55:12;;;;;;;61.72;29.88;;;3.10;99.90;;;;;;5108810;28;20020;-62
2024/02/27 05:57:38;;;;;;;66.20;29.73;;;3.10;99.90;;;;;;5108644;28;20092;-63
2024/02/27 06:00:05;;;;;;;61.28;29.80;;;3.20;99.90;;;;;;5099693;28;20026;-65
2024/02/27 06:02:30;;;;;;;68.63;31.80;;;3.20;99.90;;;;;;5108144;28;20024;-65
2024/02/27 06:04:56;;;;;;;68.57;30.40;;;3.30;99.90;;;;;;5105957;28;20061;-66
2024/02/27 06:07:21;;;;;;;68.25;30.88;;;3.20;99.90;;;;;;5107873;28;20024;-65
2024/02/27 06:09:47;;;;;;;65.80;30.27;;;3.20;99.90;;;;;;5108153;28;20110;-65
2024/02/27 06:12:12;;;;;;;68.53;31.83;;;3.20;99.90;;;;;;5108090;28;20042;-65
2024/02/27 06:14:38;;;;;;;70.22;32.50;;;3.20;99.90;;;;;;5108371;28;20049;-66
2024/02/27 06:17:04;;;;;;;75.65;33.05;;;3.20;99.90;;;;;;5106435;28;20015;-66
2024/02/27 06:19:30;;;;;;;62.80;28.40;;;3.30;99.90;;;;;;5108696;28;20480;-65
2024/02/27 06:22:11;;;;;;;65.75;29.73;;;3.30;99.90;;;;;;5108203;28;20015;-65
2024/02/27 06:24:38;;;;;;;68.80;30.27;;;3.30;99.90;;;;;;5108395;28;20065;-66
2024/02/27 06:27:04;;;;;;;58.08;27.38;;;3.30;99.90;;;;;;5106783;28;20064;-65
2024/02/27 06:29:29;;;;;;;63.15;29.85;;;3.30;99.90;;;;;;5108501;28;20023;-65
2024/02/27 06:31:55;;;;;;;70.65;32.25;;;3.40;99.90;;;;;;5107305;28;20435;-65
2024/02/27 06:34:21;;;;;;;58.97;28.42;;;3.40;99.90;;;;;;5106535;28;20551;-66
2024/02/27 06:36:48;;;;;;;66.00;30.65;;;3.50;99.90;;;;;;5106101;28;20019;-66
2024/02/27 06:39:14;;;;;;;63.03;30.17;;;3.40;99.90;;;;;;5107608;28;20016;-66
2024/02/27 06:41:39;;;;;;;62.10;27.88;;;3.50;99.90;;;;;;5107768;28;20027;-67
2024/02/27 06:44:05;;;;;;;61.00;29.63;;;3.60;99.90;;;;;;5107561;28;20136;-66
2024/02/27 06:46:31;;;;;;;69.95;32.08;;;3.60;99.90;;;;;;5107469;28;20028;-66
2024/02/27 06:48:57;;;;;;;59.17;29.08;;;3.60;99.90;;;;;;5107618;28;20480;-65
2024/02/27 06:51:22;;;;;;;58.13;26.83;;;3.60;99.90;;;;;;5107751;28;20027;-67
2024/02/27 06:53:48;;;;;;;62.30;29.58;;;3.70;99.90;;;;;;5107349;28;20020;-66
2024/02/27 06:56:14;;;;;;;63.17;28.60;;;3.70;99.90;;;;;;5105753;28;20016;-66
2024/02/27 06:58:40;;;;;;;69.65;31.02;;;3.70;99.90;;;;;;5107368;28;20084;-66
2024/02/27 07:01:11;;;;;;;59.97;28.60;;;3.80;99.90;;;;;;5106295;28;20043;-65
2024/02/27 07:03:37;;;;;;;67.00;29.42;;;3.70;99.90;;;;;;5104319;28;20122;-67
2024/02/27 07:06:03;;;;;;;65.80;29.13;;;3.80;99.90;;;;;;5106534;28;20098;-66
2024/02/27 07:08:29;;;;;;;60.17;29.00;;;3.80;99.90;;;;;;5107377;28;20027;-66
2024/02/27 07:10:54;;;;;;;55.50;26.55;;;3.80;99.90;;;;;;5105257;28;20019;-66
2024/02/27 07:13:20;;;;;;;63.72;30.42;;;3.80;99.90;;;;;;5106922;28;20031;-66
2024/02/27 07:15:46;;;;;;;60.30;30.20;;;3.90;99.90;;;;;;5107608;28;20047;-66
2024/02/27 07:18:15;;;;;;;64.00;29.42;;;3.90;99.90;;;;;;5111273;28;20407;-66
2024/02/27 07:20:42;;;;;;;59.42;27.92;;;4.00;99.90;;;;;;5111343;28;20035;-66
2024/02/27 07:23:08;;;;;;;56.75;28.52;;;4.00;99.90;;;;;;5110679;28;20369;-66
2024/02/27 07:25:34;;;;;;;61.45;28.27;;;4.00;99.90;;;;;;5109413;28;20080;-66
2024/02/27 07:27:59;;;;;;;55.83;26.20;;;4.00;99.90;;;;;;5109521;28;20418;-66
2024/02/27 07:30:26;;;;;;;55.78;27.58;;;4.00;99.90;;;;;;5109979;28;20314;-66
2024/02/27 07:32:52;;;;;;;62.17;29.77;;;4.00;99.90;;;;;;5110874;28;20088;-66
2024/02/27 07:35:18;;;;;;;57.92;27.05;;;4.10;99.90;;;;;;5112574;28;20498;-66
2024/02/27 07:37:43;;;;;;;56.38;27.85;;;4.10;99.90;;;;;;5111980;28;20019;-66
2024/02/27 07:40:10;;;;;;;55.97;27.85;;;4.10;99.90;;;;;;5110861;28;20023;-66
2024/02/27 07:42:35;;;;;;;55.95;26.98;;;4.10;99.90;;;;;;5110857;28;20043;-67
2024/02/27 07:45:01;;;;;;;51.13;25.10;;;4.10;99.90;;;;;;5110744;28;20058;-66
2024/02/27 07:47:26;;;;;;;48.95;24.52;;;4.20;99.90;;;;;;5110316;28;20039;-67
2024/02/27 07:49:52;;;;;;;54.47;25.15;;;4.20;99.90;;;;;;5110610;28;20020;-66
2024/02/27 07:52:17;;;;;;;54.80;26.30;;;4.30;99.90;;;;;;5109109;28;20015;-66
2024/02/27 07:54:43;;;;;;;47.72;24.38;;;4.20;99.90;;;;;;5110948;28;20109;-66
2024/02/27 07:57:08;;;;;;;51.22;24.67;;;4.20;99.90;;;;;;5110468;28;20094;-66
2024/02/27 07:59:34;;;;;;;49.95;25.27;;;4.20;99.90;;;;;;5109712;28;20036;-66
2024/02/27 08:02:00;;;;;;;46.88;24.45;;;4.30;99.90;;;;;;5109501;28;20138;-66
2024/02/27 08:04:25;;;;;;;45.58;24.10;;;4.30;99.90;;;;;;5110834;27;20023;-66
2024/02/27 08:06:51;;;;;;;50.65;25.30;;;4.40;99.90;;;;;;5110783;28;20027;-66
2024/02/27 08:09:16;;;;;;;49.03;24.92;;;4.50;99.90;;;;;;5110858;28;20357;-66
2024/02/27 08:11:42;;;;;;;53.97;25.92;;;4.50;99.90;;;;;;5110861;28;20034;-66
2024/02/27 08:14:08;;;;;;;51.85;24.45;;;4.50;99.90;;;;;;5110105;28;20019;-66
2024/02/27 08:16:34;;;;;;;47.78;24.10;;;4.50;99.90;;;;;;5110257;28;20026;-65
2024/02/27 08:19:04;;;;;;;49.47;25.75;;;4.50;99.90;;;;;;5109324;28;20028;-65
2024/02/27 08:21:33;;;;;;;44.85;23.88;;;4.50;99.90;;;;;;5110372;28;20024;-65
2024/02/27 08:24:00;;;;;;;51.38;24.77;;;4.50;99.90;;;;;;5110436;28;20084;-66
2024/02/27 08:26:25;;;;;;;49.42;22.45;;;4.50;99.90;;;;;;5110168;28;20015;-66
2024/02/27 08:28:51;;;;;;;46.10;23.83;;;4.60;99.90;;;;;;5109442;28;20508;-66
2024/02/27 08:31:17;;;;;;;48.42;23.98;;;4.60;99.90;;;;;;5110317;28;20028;-65
2024/02/27 08:33:42;;;;;;;39.08;22.05;;;4.70;99.90;;;;;;5110763;28;20028;-66
2024/02/27 08:36:08;;;;;;;43.10;22.13;;;4.70;99.90;;;;;;5108382;28;20047;-65
2024/02/27 08:38:33;;;;;;;45.10;23.48;;;4.70;99.90;;;;;;5110321;28;20016;-66
2024/02/27 08:41:02;;;;;;;43.55;22.15;;;4.70;99.90;;;;;;5108463;28;20114;-66
2024/02/27 08:43:28;;;;;;;41.65;22.02;;;4.80;99.90;;;;;;5110198;28;20273;-66
2024/02/27 08:45:54;;;;;;;43.72;24.70;;;4.80;99.90;;;;;;5109502;28;20038;-66
2024/02/27 08:48:19;;;;;;;43.25;22.70;;;4.80;99.90;;;;;;5109918;28;20391;-66
2024/02/27 08:50:47;;;;;;;43.97;24.00;;;4.90;99.90;;;;;;5109980;28;20050;-66
2024/02/27 08:53:13;;;;;;;39.97;21.42;;;4.90;99.90;;;;;;5109732;28;20035;-66
2024/02/27 08:55:39;;;;;;;42.42;23.10;;;4.90;99.90;;;;;;5109494;28;20024;-66
2024/02/27 08:58:05;;;;;;;46.80;23.58;;;5.00;99.90;;;;;;5109537;27;20016;-66
2024/02/27 09:00:31;;;;;;;43.90;22.25;;;5.00;99.90;;;;;;5109812;28;20047;-66
2024/02/27 09:02:58;;;;;;;40.30;22.48;;;5.00;99.90;;;;;;5109370;28;20035;-66
2024/02/27 09:05:24;;;;;;;41.63;22.23;;;5.00;99.90;;;;;;5109400;28;20015;-66
2024/02/27 09:07:49;;;;;;;41.60;22.25;;;5.10;99.90;;;;;;5109795;28;20381;-66
2024/02/27 09:10:15;;;;;;;38.75;20.88;;;5.10;99.90;;;;;;5109459;28;20054;-65
2024/02/27 09:12:41;;;;;;;38.38;20.95;;;5.10;99.90;;;;;;5108211;28;20092;-66
2024/02/27 09:15:07;;;;;;;35.40;20.20;;;5.20;99.90;;;;;;5109346;28;20019;-66
2024/02/27 09:17:33;;;;;;;39.40;21.20;;;5.20;99.90;;;;;;5108868;28;20092;-66
2024/02/27 09:19:58;;;;;;;44.50;24.15;;;5.30;99.90;;;;;;5109186;28;20118;-66
2024/02/27 09:22:24;;;;;;;49.70;24.98;;;5.30;99.90;;;;;;5108035;28;20027;-66
2024/02/27 09:24:50;;;;;;;39.50;22.42;;;5.30;99.90;;;;;;5108602;28;20437;-66
2024/02/27 09:27:16;;;;;;;42.50;23.25;;;5.40;99.90;;;;;;5107908;28;20145;-66
2024/02/27 09:29:43;;;;;;;39.75;21.45;;;5.40;99.90;;;;;;5109161;28;20019;-66
2024/02/27 09:32:09;;;;;;;45.75;23.98;;;5.40;99.90;;;;;;5108613;28;20019;-67
2024/02/27 09:34:34;;;;;;;42.97;23.65;;;5.30;99.90;;;;;;5109078;27;20046;-66
2024/02/27 09:37:00;;;;;;;44.40;24.33;;;5.30;99.90;;;;;;5108316;28;20023;-66
2024/02/27 09:39:25;;;;;;;44.28;24.42;;;5.30;99.90;;;;;;5107633;28;20037;-66
2024/02/27 09:42:03;;;;;;;42.17;24.35;;;5.30;99.90;;;;;;5108446;28;20099;-66
2024/02/27 09:44:29;;;;;;;47.70;25.38;;;5.40;99.90;;;;;;5107028;28;20088;-66
2024/02/27 09:46:56;;;;;;;44.33;24.42;;;5.40;99.90;;;;;;5107744;28;20035;-66
2024/02/27 09:49:23;;;;;;;43.47;23.13;;;5.30;99.90;;;;;;5106733;28;20030;-66
2024/02/27 09:51:52;;;;;;;41.53;20.95;;;5.40;99.90;;;;;;5108545;28;20501;-66
2024/02/27 09:54:17;;;;;;;39.83;21.73;;;5.50;99.90;;;;;;5108542;28;20028;-66
2024/02/27 09:56:43;;;;;;;35.92;20.33;;;5.50;99.90;;;;;;5108257;28;20030;-66
2024/02/27 09:59:09;;;;;;;29.60;18.35;;;5.50;99.90;;;;;;5108896;28;20024;-66
2024/02/27 10:01:36;;;;;;;38.42;21.02;;;5.60;99.90;;;;;;5109033;28;20430;-66
2024/02/27 10:04:02;;;;;;;33.35;19.98;;;5.60;99.90;;;;;;5107813;28;20027;-67
2024/02/27 10:06:32;;;;;;;34.50;18.83;;;5.70;99.90;;;;;;5108142;28;20111;-66
2024/02/27 10:09:00;;;;;;;34.85;18.63;;;5.70;99.90;;;;;;5106881;28;20031;-67
2024/02/27 10:11:26;;;;;;;31.65;18.27;;;5.70;99.90;;;;;;5106878;28;20055;-66
2024/02/27 10:13:52;;;;;;;30.35;17.85;;;5.70;99.90;;;;;;5107993;28;20051;-66
2024/02/27 10:16:22;;;;;;;32.95;17.65;;;5.80;99.90;;;;;;5107258;27;20463;-66
2024/02/27 10:18:51;;;;;;;30.98;19.20;;;5.80;99.90;;;;;;5107869;28;20024;-66
2024/02/27 10:21:17;;;;;;;30.95;17.20;;;5.90;99.90;;;;;;5107783;28;20039;-66
2024/02/27 10:23:43;;;;;;;25.75;15.82;;;5.90;99.90;;;;;;5108402;28;20019;-66
2024/02/27 10:26:10;;;;;;;29.90;17.77;;;5.90;99.90;;;;;;5107239;28;20027;-66
2024/02/27 10:28:36;;;;;;;32.78;18.40;;;6.00;99.90;;;;;;5106322;28;20039;-66
2024/02/27 10:31:09;;;;;;;30.40;17.98;;;5.90;99.90;;;;;;5106721;28;20028;-66
2024/02/27 10:33:37;;;;;;;32.03;17.10;;;5.90;99.90;;;;;;5108560;28;20027;-66
2024/02/27 10:36:04;;;;;;;29.52;17.38;;;6.00;99.90;;;;;;5106235;28;20473;-66
2024/02/27 10:38:29;;;;;;;29.55;16.52;;;6.00;99.90;;;;;;5108228;28;20032;-65
2024/02/27 10:40:55;;;;;;;27.38;16.52;;;6.10;99.90;;;;;;5108300;28;20040;-66
2024/02/27 10:43:21;;;;;;;27.58;15.73;;;6.10;99.90;;;;;;5108160;28;20026;-66
2024/02/27 10:45:48;;;;;;;35.75;20.08;;;6.20;99.90;;;;;;5107845;28;20034;-67
2024/02/27 10:48:15;;;;;;;28.75;16.58;;;6.20;99.90;;;;;;5108026;28;20527;-66
2024/02/27 10:50:41;;;;;;;29.95;17.15;;;6.20;99.90;;;;;;5104728;28;20028;-66
2024/02/27 10:53:09;;;;;;;26.83;15.52;;;6.30;99.90;;;;;;5111899;28;20318;-65
2024/02/27 10:55:37;;;;;;;26.27;15.23;;;6.30;99.90;;;;;;5111685;28;20423;-65
2024/02/27 10:58:03;;;;;;;24.85;15.15;;;6.40;99.90;;;;;;5112076;28;20436;-65
2024/02/27 11:00:29;;;;;;;22.55;13.35;;;6.40;99.90;;;;;;5112481;27;20532;-65
2024/02/27 11:02:57;;;;;;;23.67;14.60;;;6.50;99.90;;;;;;5112059;28;20277;-66
2024/02/27 11:05:25;;;;;;;26.15;14.98;;;6.60;99.90;;;;;;5111480;28;20278;-65
2024/02/27 11:07:54;;;;;;;24.58;15.07;;;6.60;99.90;;;;;;5111529;28;20031;-65
2024/02/27 11:10:21;;;;;;;23.05;14.15;;;6.70;99.90;;;;;;5110448;28;20046;-65
2024/02/27 11:12:50;;;;;;;25.27;14.10;;;6.80;99.90;;;;;;5109829;28;20015;-65
2024/02/27 11:15:18;;;;;;;21.10;13.15;;;6.90;99.90;;;;;;5111095;28;20028;-65
2024/02/27 11:17:48;;;;;;;24.85;14.70;;;6.90;99.90;;;;;;5110107;28;20130;-65
2024/02/27 11:20:15;;;;;;;23.85;12.52;;;7.00;99.90;;;;;;5111500;28;20174;-66
2024/02/27 11:22:43;;;;;;;21.90;13.43;;;7.10;99.90;;;;;;5111013;28;20031;-64
2024/02/27 11:25:09;;;;;;;26.42;14.27;;;7.20;99.90;;;;;;5110778;28;20026;-65
2024/02/27 11:27:36;;;;;;;25.13;15.75;;;7.10;99.90;;;;;;5109709;28;20102;-65
2024/02/27 11:30:02;;;;;;;21.83;13.50;;;7.10;99.90;;;;;;5110772;28;20055;-65
2024/02/27 11:32:30;;;;;;;26.52;13.30;;;7.10;99.90;;;;;;5110741;28;20020;-65
2024/02/27 11:34:56;;;;;;;19.80;13.05;;;7.20;99.90;;;;;;5110855;28;20026;-65
2024/02/27 11:37:24;;;;;;;18.80;12.05;;;7.20;99.90;;;;;;5109187;28;20020;-65
2024/02/27 11:39:49;;;;;;;23.45;12.80;;;7.20;99.90;;;;;;5110909;28;20238;-65
2024/02/27 11:42:26;;;;;;;20.08;13.50;;;7.20;99.90;;;;;;5110566;28;20139;-66
2024/02/27 11:45:07;;;;;;;23.00;13.45;;;7.20;99.90;;;;;;5111375;28;20031;-65
2024/02/27 11:47:53;;;;;;;21.30;12.93;;;7.30;99.90;;;;;;5110697;28;20496;-65
2024/02/27 11:50:45;;;;;;;16.73;11.07;;;7.30;99.90;;;;;;5109744;28;20059;-66
2024/02/27 11:53:17;;;;;;;21.42;13.57;;;7.50;99.90;;;;;;5109327;28;20448;-66
2024/02/27 11:55:47;;;;;;;15.80;11.13;;;7.50;99.90;;;;;;5109204;27;20112;-65
2024/02/27 11:58:13;;;;;;;22.42;12.65;;;7.50;99.90;;;;;;5110092;28;20417;-66
2024/02/27 12:00:39;;;;;;;20.00;12.40;;;7.50;99.90;;;;;;5110082;28;20046;-66
2024/02/27 12:03:07;;;;;;;18.83;11.70;;;7.50;99.90;;;;;;5108878;28;20020;-66
2024/02/27 12:05:33;;;;;;;16.40;10.90;;;7.50;99.90;;;;;;5109233;28;20042;-65
2024/02/27 12:07:59;;;;;;;21.88;12.30;;;7.50;99.90;;;;;;5111132;28;20278;-65
2024/02/27 12:10:25;;;;;;;17.55;11.15;;;7.50;99.90;;;;;;5110406;28;20503;-65
2024/02/27 12:12:51;;;;;;;16.77;10.98;;;7.50;99.90;;;;;;5109189;28;20020;-65
2024/02/27 12:15:17;;;;;;;16.45;9.95;;;7.40;99.90;;;;;;5108833;28;20039;-65
2024/02/27 12:17:43;;;;;;;17.98;10.65;;;7.50;99.90;;;;;;5110869;28;20020;-65
2024/02/27 12:20:10;;;;;;;15.82;10.13;;;7.50;99.90;;;;;;5110804;28;20034;-66
2024/02/27 12:22:37;;;;;;;14.93;10.07;;;7.50;99.90;;;;;;5109387;28;20016;-66
2024/02/27 12:25:03;;;;;;;16.75;10.38;;;7.50;99.90;;;;;;5110298;28;20342;-65
2024/02/27 12:27:29;;;;;;;17.40;10.85;;;7.60;99.90;;;;;;5109757;28;20553;-66
2024/02/27 12:29:55;;;;;;;20.65;11.00;;;7.60;99.90;;;;;;5108672;28;20023;-66
2024/02/27 12:32:21;;;;;;;17.70;11.88;;;7.50;99.90;;;;;;5110062;28;20102;-65
2024/02/27 12:34:48;;;;;;;16.80;11.27;;;7.50;99.90;;;;;;5108660;28;20106;-66